Terminal Aerodrome Forecast
Issued by NWS

Home | Current Version | Previous Version | Text Only | Print | Product List | Glossary On
Versions: 1 2 3 4 5 6 7 8 9 10 11 12 13 14 15 16
417
FTUS46 KPDT 271720
TAFDLS
TAF
KDLS 271720Z 2718/2818 31015G25KT P6SM FEW090 SCT180
     FM280200 30012G20KT P6SM SKC=

USA.gov is the U.S. government's official web portal to all federal, state and local government web resources and services.